createdAt,value
2023-01-20T00:00:44.888Z,15.38
2023-01-20T00:03:11.725Z,15.18
2023-01-20T00:05:38.391Z,15.05
2023-01-20T00:08:05.334Z,14.25
2023-01-20T00:10:31.972Z,14.77
2023-01-20T00:12:58.613Z,14.50
2023-01-20T00:15:25.236Z,13.95
2023-01-20T00:17:51.896Z,13.77
2023-01-20T00:20:18.682Z,13.68
2023-01-20T00:22:45.294Z,12.57
2023-01-20T00:25:12.420Z,12.93
2023-01-20T00:27:39.393Z,12.15
2023-01-20T00:30:06.727Z,13.95
2023-01-20T00:32:44.701Z,13.63
2023-01-20T00:35:15.200Z,13.35
2023-01-20T00:37:43.077Z,11.27
2023-01-20T00:40:10.324Z,13.25
2023-01-20T00:42:36.962Z,12.35
2023-01-20T00:45:03.930Z,14.30
2023-01-20T00:47:30.601Z,15.65
2023-01-20T00:49:57.282Z,15.98
2023-01-20T00:52:24.001Z,13.18
2023-01-20T00:54:50.618Z,13.45
2023-01-20T00:57:17.271Z,13.30
2023-01-20T00:59:43.947Z,12.68
2023-01-20T01:02:10.649Z,11.27
2023-01-20T01:04:37.346Z,10.88
2023-01-20T01:07:04.026Z,10.77
2023-01-20T01:09:32.320Z,10.25
2023-01-20T01:11:59.019Z,11.15
2023-01-20T01:14:25.773Z,11.13
2023-01-20T01:16:52.625Z,11.50
2023-01-20T01:19:19.735Z,11.45
2023-01-20T01:21:46.374Z,11.55
2023-01-20T01:24:13.026Z,12.38
2023-01-20T01:26:39.624Z,11.98
2023-01-20T01:29:06.335Z,12.77
2023-01-20T01:31:33.337Z,12.90
2023-01-20T01:34:00.038Z,12.48
2023-01-20T01:36:26.662Z,13.73
2023-01-20T01:38:58.682Z,12.90
2023-01-20T01:41:26.300Z,13.27
2023-01-20T01:44:01.757Z,13.88
2023-01-20T01:46:28.421Z,14.48
2023-01-20T01:48:57.174Z,13.93
2023-01-20T01:51:28.403Z,14.90
2023-01-20T01:53:57.808Z,14.93
2023-01-20T01:56:28.166Z,13.98
2023-01-20T01:58:59.867Z,14.43
2023-01-20T02:01:28.395Z,14.35
2023-01-20T02:04:04.514Z,15.27
2023-01-20T02:06:38.311Z,14.82
2023-01-20T02:09:05.681Z,13.68
2023-01-20T02:11:41.518Z,13.80
2023-01-20T02:14:08.814Z,15.55
2023-01-20T02:16:44.870Z,15.43
2023-01-20T02:19:28.150Z,16.92
2023-01-20T02:22:16.530Z,13.80
2023-01-20T02:25:01.401Z,17.00
2023-01-20T02:27:52.911Z,15.38
2023-01-20T02:30:38.289Z,15.38
2023-01-20T02:33:13.366Z,17.05
2023-01-20T02:35:52.322Z,17.75
2023-01-20T02:38:52.813Z,17.17
2023-01-20T02:41:52.199Z,16.35
2023-01-20T02:44:34.945Z,17.48
2023-01-20T02:47:09.846Z,18.55
2023-01-20T02:49:41.389Z,16.00
2023-01-20T02:52:18.861Z,15.40
2023-01-20T02:54:49.997Z,16.20
2023-01-20T02:57:23.905Z,17.25
2023-01-20T02:59:53.279Z,14.73
2023-01-20T03:02:23.173Z,15.70
2023-01-20T03:05:04.828Z,15.00
2023-01-20T03:07:35.209Z,13.98
2023-01-20T03:10:08.022Z,15.75
2023-01-20T03:12:45.492Z,14.02
2023-01-20T03:15:13.267Z,13.45
2023-01-20T03:17:40.513Z,13.52
2023-01-20T03:20:08.158Z,14.07
2023-01-20T03:22:34.907Z,13.95
2023-01-20T03:25:03.005Z,13.27
2023-01-20T03:27:29.704Z,11.95
2023-01-20T03:29:56.355Z,12.05
2023-01-20T03:32:26.791Z,11.77
2023-01-20T03:34:55.796Z,11.75
2023-01-20T03:37:23.094Z,10.57
2023-01-20T03:39:50.036Z,9.93
2023-01-20T03:42:30.780Z,10.75
2023-01-20T03:45:40.178Z,9.25
2023-01-20T03:48:19.096Z,9.18
2023-01-20T03:50:54.901Z,8.77
2023-01-20T03:53:45.793Z,8.27
2023-01-20T03:56:55.230Z,8.77
2023-01-20T03:59:23.458Z,8.70
2023-01-20T04:01:52.197Z,7.18
2023-01-20T04:04:20.063Z,8.13
2023-01-20T04:06:50.295Z,8.32
2023-01-20T04:09:24.653Z,8.15
2023-01-20T04:11:51.684Z,8.80
2023-01-20T04:14:18.334Z,8.57
2023-01-20T04:16:55.750Z,9.23
2023-01-20T04:19:22.876Z,10.88
2023-01-20T04:22:00.565Z,10.68
2023-01-20T04:24:48.463Z,10.00
2023-01-20T04:27:15.067Z,9.85
2023-01-20T04:29:41.726Z,10.07
2023-01-20T04:32:10.524Z,10.32
2023-01-20T04:34:37.239Z,10.35
2023-01-20T04:37:04.090Z,10.63
2023-01-20T04:39:30.788Z,10.23
2023-01-20T04:41:57.525Z,10.13
2023-01-20T04:44:24.265Z,10.05
2023-01-20T04:46:50.972Z,11.68
2023-01-20T04:49:17.845Z,11.85
2023-01-20T04:51:44.502Z,10.93
2023-01-20T04:54:11.430Z,11.35
2023-01-20T04:56:38.132Z,11.15
2023-01-20T04:59:05.083Z,11.63
2023-01-20T05:01:31.806Z,11.95
2023-01-20T05:03:58.577Z,11.88
2023-01-20T05:06:25.403Z,11.40
2023-01-20T05:08:52.178Z,11.32
2023-01-20T05:11:19.372Z,12.38
2023-01-20T05:13:46.073Z,12.23
2023-01-20T05:16:12.785Z,11.45
2023-01-20T05:18:39.546Z,11.15
2023-01-20T05:21:08.708Z,11.68
2023-01-20T05:23:35.713Z,11.95
2023-01-20T05:26:02.396Z,11.63
2023-01-20T05:28:29.074Z,11.32
2023-01-20T05:30:55.774Z,11.10
2023-01-20T05:33:22.455Z,11.35
2023-01-20T05:35:49.092Z,11.82
2023-01-20T05:38:15.792Z,10.68
2023-01-20T05:40:42.576Z,10.88
2023-01-20T05:43:10.263Z,10.40
2023-01-20T05:45:37.786Z,10.90
2023-01-20T05:48:04.718Z,10.98
2023-01-20T05:50:31.319Z,10.82
2023-01-20T05:52:58.031Z,10.50
2023-01-20T05:55:24.770Z,10.50
2023-01-20T05:57:51.472Z,11.32
2023-01-20T06:00:18.844Z,10.48
2023-01-20T06:02:45.945Z,11.18
2023-01-20T06:05:13.094Z,11.18
2023-01-20T06:07:40.095Z,11.57
2023-01-20T06:10:08.613Z,10.60
2023-01-20T06:12:35.380Z,11.82
2023-01-20T06:15:02.435Z,12.70
2023-01-20T06:17:29.053Z,12.70
2023-01-20T06:19:55.707Z,14.10
2023-01-20T06:22:22.447Z,11.93
2023-01-20T06:24:49.085Z,12.68
2023-01-20T06:27:15.770Z,12.48
2023-01-20T06:29:42.393Z,13.57
2023-01-20T06:32:09.009Z,13.77
2023-01-20T06:34:36.546Z,14.10
2023-01-20T06:37:03.919Z,12.32
2023-01-20T06:39:30.567Z,10.60
2023-01-20T06:41:58.882Z,12.32
2023-01-20T06:44:26.453Z,10.80
2023-01-20T06:46:53.154Z,10.40
2023-01-20T06:49:34.925Z,11.30
2023-01-20T06:52:01.570Z,10.80
2023-01-20T06:54:28.244Z,11.27
2023-01-20T06:56:54.883Z,11.30
2023-01-20T06:59:21.466Z,11.80
2023-01-20T07:01:48.296Z,11.73
2023-01-20T07:04:15.097Z,12.07
2023-01-20T07:06:42.280Z,11.18
2023-01-20T07:09:11.529Z,11.70
2023-01-20T07:11:38.249Z,12.40
2023-01-20T07:14:05.770Z,12.80
2023-01-20T07:16:33.534Z,12.13
2023-01-20T07:19:00.238Z,11.52
2023-01-20T07:21:26.936Z,12.55
2023-01-20T07:23:53.628Z,11.20
2023-01-20T07:26:22.664Z,12.93
2023-01-20T07:28:49.655Z,13.80
2023-01-20T07:31:21.858Z,12.43
2023-01-20T07:33:48.772Z,10.88
2023-01-20T07:36:16.711Z,10.63
2023-01-20T07:38:46.274Z,9.95
2023-01-20T07:41:16.323Z,11.00
2023-01-20T07:43:44.270Z,11.38
2023-01-20T07:46:11.743Z,10.00
2023-01-20T07:48:38.819Z,10.65
2023-01-20T07:51:07.859Z,10.93
2023-01-20T07:53:49.459Z,11.30
2023-01-20T07:56:19.419Z,10.60
2023-01-20T07:58:47.439Z,11.43
2023-01-20T08:01:16.538Z,11.32
2023-01-20T08:03:43.995Z,11.70
2023-01-20T08:06:12.742Z,11.52
2023-01-20T08:08:39.943Z,10.82
2023-01-20T08:11:07.904Z,11.05
2023-01-20T08:13:34.752Z,10.63
2023-01-20T08:16:06.478Z,10.15
2023-01-20T08:18:35.107Z,10.10
2023-01-20T08:21:06.429Z,10.93
2023-01-20T08:23:34.010Z,11.10
2023-01-20T08:26:02.845Z,10.68
2023-01-20T08:28:30.703Z,12.57
2023-01-20T08:31:11.235Z,11.18
2023-01-20T08:33:39.278Z,10.85
2023-01-20T08:36:07.658Z,10.93
2023-01-20T08:38:35.025Z,11.93
2023-01-20T08:41:02.369Z,11.05
2023-01-20T08:43:29.030Z,11.02
2023-01-20T08:46:00.634Z,11.73
2023-01-20T08:48:28.051Z,12.65
2023-01-20T08:50:54.751Z,13.75
2023-01-20T08:53:21.468Z,13.20
2023-01-20T08:55:56.206Z,14.98
2023-01-20T08:58:25.447Z,13.20
2023-01-20T09:00:52.683Z,13.02
2023-01-20T09:03:19.621Z,13.30
2023-01-20T09:05:46.271Z,12.77
2023-01-20T09:08:13.665Z,14.00
2023-01-20T09:10:40.622Z,14.23
2023-01-20T09:13:07.393Z,13.88
2023-01-20T09:15:34.221Z,14.48
2023-01-20T09:18:00.932Z,14.95
2023-01-20T09:20:28.880Z,14.00
2023-01-20T09:22:55.760Z,14.88
2023-01-20T09:25:22.781Z,13.73
2023-01-20T09:27:49.517Z,15.90
2023-01-20T09:30:16.532Z,14.88
2023-01-20T09:32:43.187Z,13.82
2023-01-20T09:35:10.146Z,15.63
2023-01-20T09:37:55.456Z,15.73
2023-01-20T09:40:44.441Z,15.07
2023-01-20T09:43:56.133Z,14.02
2023-01-20T09:46:38.607Z,14.07
2023-01-20T09:49:59.453Z,12.98
2023-01-20T09:52:56.104Z,12.98
2023-01-20T09:55:25.855Z,14.65
2023-01-20T09:58:14.791Z,15.15
2023-01-20T10:00:46.717Z,13.50
2023-01-20T10:03:36.857Z,13.18
2023-01-20T10:06:27.516Z,15.52
2023-01-20T10:09:05.626Z,14.73
2023-01-20T10:11:41.721Z,14.32
2023-01-20T10:14:20.191Z,12.73
2023-01-20T10:17:15.574Z,13.18
2023-01-20T10:19:54.442Z,13.38
2023-01-20T10:22:29.108Z,11.93
2023-01-20T10:25:06.352Z,12.65
2023-01-20T10:27:37.216Z,12.88
2023-01-20T10:30:14.866Z,13.43
2023-01-20T10:33:04.590Z,11.90
2023-01-20T10:35:36.837Z,11.52
2023-01-20T10:38:07.682Z,11.82
2023-01-20T10:40:49.654Z,11.20
2023-01-20T10:43:17.880Z,12.27
2023-01-20T10:46:04.001Z,11.40
2023-01-20T10:48:39.661Z,10.95
2023-01-20T10:51:16.652Z,11.40
2023-01-20T10:54:07.729Z,12.15
2023-01-20T10:56:59.092Z,11.85
2023-01-20T10:59:34.899Z,10.40
2023-01-20T11:02:12.296Z,10.43
2023-01-20T11:04:39.425Z,10.98
2023-01-20T11:07:10.412Z,11.07
2023-01-20T11:09:37.705Z,10.60
2023-01-20T11:12:13.459Z,11.75
2023-01-20T11:14:40.507Z,10.50
2023-01-20T11:17:12.961Z,11.02
2023-01-20T11:19:54.501Z,10.65
2023-01-20T11:22:28.801Z,10.13
2023-01-20T11:24:58.870Z,10.20
2023-01-20T11:27:29.812Z,9.57
2023-01-20T11:30:04.263Z,9.60
2023-01-20T11:32:36.582Z,9.85
2023-01-20T11:35:19.575Z,9.73
2023-01-20T11:37:46.466Z,10.82
2023-01-20T11:40:21.552Z,10.02
2023-01-20T11:42:50.171Z,9.65
2023-01-20T11:45:35.046Z,9.90
2023-01-20T11:48:16.162Z,11.05
2023-01-20T11:50:57.368Z,10.38
2023-01-20T11:53:31.534Z,10.25
2023-01-20T11:56:02.078Z,10.95
2023-01-20T11:58:33.136Z,10.02
2023-01-20T12:01:05.793Z,10.93
2023-01-20T12:03:51.213Z,10.60
2023-01-20T12:06:25.659Z,10.68
2023-01-20T12:09:19.257Z,10.30
2023-01-20T12:11:57.680Z,10.65
2023-01-20T12:14:30.475Z,9.18
2023-01-20T12:17:14.491Z,9.00
2023-01-20T12:19:41.141Z,10.32
2023-01-20T12:22:23.459Z,10.13
2023-01-20T12:25:29.576Z,9.15
2023-01-20T12:28:23.081Z,10.73
2023-01-20T12:31:10.885Z,9.50
2023-01-20T12:33:45.369Z,9.55
2023-01-20T12:36:38.740Z,9.90
2023-01-20T12:39:28.301Z,9.48
2023-01-20T12:42:10.024Z,8.85
2023-01-20T12:44:53.630Z,9.52
2023-01-20T12:47:37.083Z,11.27
2023-01-20T12:50:17.533Z,10.30
2023-01-20T12:52:50.472Z,9.05
2023-01-20T12:55:37.657Z,9.27
2023-01-20T12:58:39.889Z,9.05
2023-01-20T13:01:28.222Z,8.57
2023-01-20T13:04:16.704Z,8.52
2023-01-20T13:07:13.318Z,8.65
2023-01-20T13:09:55.354Z,7.65
2023-01-20T13:12:41.292Z,8.40
2023-01-20T13:15:34.555Z,8.13
2023-01-20T13:18:31.464Z,8.13
2023-01-20T13:20:59.300Z,8.43
2023-01-20T13:23:37.116Z,8.68
2023-01-20T13:26:05.044Z,8.57
2023-01-20T13:28:32.121Z,8.43
2023-01-20T13:31:01.175Z,7.90
2023-01-20T13:33:35.843Z,8.32
2023-01-20T13:36:23.246Z,12.50
2023-01-20T13:39:10.951Z,12.35
2023-01-20T13:41:48.537Z,14.57
2023-01-20T13:44:35.596Z,11.60
2023-01-20T13:47:03.661Z,9.88
2023-01-20T13:49:48.490Z,10.50
2023-01-20T13:52:15.439Z,10.02
2023-01-20T13:54:44.606Z,9.45
2023-01-20T13:57:28.009Z,9.98
2023-01-20T13:59:56.064Z,10.00
2023-01-20T14:02:28.476Z,16.42
2023-01-20T14:04:55.687Z,25.05
2023-01-20T14:07:26.979Z,33.28
2023-01-20T14:09:55.470Z,23.92
2023-01-20T14:12:22.694Z,16.67
2023-01-20T14:14:50.262Z,10.93
2023-01-20T14:17:19.068Z,11.70
2023-01-20T14:19:51.686Z,10.23
2023-01-20T14:22:27.169Z,10.15
2023-01-20T14:24:57.291Z,10.00
2023-01-20T14:27:27.911Z,10.40
2023-01-20T14:29:57.227Z,9.95
2023-01-20T14:32:29.034Z,10.05
2023-01-20T14:34:56.623Z,9.55
2023-01-20T14:37:27.831Z,10.77
2023-01-20T14:39:56.839Z,11.48
2023-01-20T14:42:24.827Z,10.77
2023-01-20T14:44:53.110Z,11.50
2023-01-20T14:47:21.494Z,10.73
2023-01-20T14:49:49.881Z,10.77
2023-01-20T14:52:27.521Z,10.50
2023-01-20T14:54:56.336Z,10.43
2023-01-20T14:57:27.729Z,11.07
2023-01-20T15:00:15.126Z,10.93
2023-01-20T15:03:21.696Z,11.27
2023-01-20T15:05:59.714Z,11.30
2023-01-20T15:08:32.561Z,11.20
2023-01-20T15:11:14.629Z,12.38
2023-01-20T15:13:43.213Z,11.35
2023-01-20T15:16:18.400Z,11.70
2023-01-20T15:19:18.427Z,11.77
2023-01-20T15:21:56.358Z,11.38
2023-01-20T15:24:30.506Z,11.77
2023-01-20T15:27:02.842Z,11.55
2023-01-20T15:29:33.758Z,12.70
2023-01-20T15:32:12.409Z,12.00
2023-01-20T15:34:39.154Z,12.55
2023-01-20T15:37:18.418Z,11.48
2023-01-20T15:39:45.172Z,10.05
2023-01-20T15:42:12.948Z,12.02
2023-01-20T15:44:39.650Z,10.05
2023-01-20T15:47:19.420Z,11.00
2023-01-20T15:49:46.479Z,8.38
2023-01-20T15:52:13.944Z,9.70
2023-01-20T15:54:40.621Z,13.63
2023-01-20T15:57:14.136Z,10.23
2023-01-20T15:59:50.092Z,10.13
2023-01-20T16:02:21.959Z,9.30
2023-01-20T16:04:49.023Z,12.90
2023-01-20T16:07:20.419Z,26.80
2023-01-20T16:09:47.179Z,25.15
2023-01-20T16:12:15.238Z,15.40
2023-01-20T16:14:42.200Z,10.93
2023-01-20T16:17:23.370Z,13.07
2023-01-20T16:19:50.301Z,14.70
2023-01-20T16:22:17.182Z,17.63
2023-01-20T16:24:44.073Z,11.82
2023-01-20T16:27:20.798Z,10.45
2023-01-20T16:29:48.152Z,9.25
2023-01-20T16:32:17.442Z,9.65
2023-01-20T16:34:46.243Z,10.20
2023-01-20T16:37:14.378Z,10.00
2023-01-20T16:39:41.425Z,10.20
2023-01-20T16:42:13.947Z,10.85
2023-01-20T16:44:40.712Z,10.55
2023-01-20T16:47:08.257Z,10.52
2023-01-20T16:49:35.230Z,10.98
2023-01-20T16:52:01.960Z,11.50
2023-01-20T16:54:28.693Z,14.10
2023-01-20T16:56:55.483Z,15.82
2023-01-20T16:59:22.202Z,16.48
2023-01-20T17:01:49.244Z,16.50
2023-01-20T17:04:16.035Z,17.17
2023-01-20T17:06:43.232Z,15.23
2023-01-20T17:09:10.383Z,14.48
2023-01-20T17:11:38.875Z,14.88
2023-01-20T17:14:07.716Z,14.95
2023-01-20T17:16:35.673Z,13.68
2023-01-20T17:19:02.838Z,14.82
2023-01-20T17:21:32.416Z,14.75
2023-01-20T17:24:04.525Z,14.95
2023-01-20T17:26:31.710Z,12.60
2023-01-20T17:29:02.140Z,13.93
2023-01-20T17:31:28.979Z,15.52
2023-01-20T17:33:55.632Z,14.63
2023-01-20T17:36:22.743Z,16.25
2023-01-20T17:38:49.383Z,16.55
2023-01-20T17:41:16.085Z,15.98
2023-01-20T17:43:46.319Z,16.55
2023-01-20T17:46:25.055Z,16.05
2023-01-20T17:48:51.805Z,15.20
2023-01-20T17:51:27.777Z,15.60
2023-01-20T17:53:54.477Z,15.70
2023-01-20T17:56:22.427Z,15.50
2023-01-20T17:58:49.924Z,14.63
2023-01-20T18:01:19.656Z,12.95
2023-01-20T18:03:48.757Z,14.25
2023-01-20T18:06:18.353Z,16.48
2023-01-20T18:08:49.639Z,19.13
2023-01-20T18:11:16.334Z,20.55
2023-01-20T18:13:46.037Z,20.35
2023-01-20T18:16:14.749Z,18.92
2023-01-20T18:18:43.381Z,14.98
2023-01-20T18:21:11.945Z,14.02
2023-01-20T18:23:39.427Z,15.60
2023-01-20T18:26:08.178Z,21.77
2023-01-20T18:28:35.284Z,23.17
2023-01-20T18:31:08.321Z,23.65
2023-01-20T18:33:44.140Z,19.42
2023-01-20T18:36:16.396Z,20.83
2023-01-20T18:38:43.449Z,18.83
2023-01-20T18:41:11.575Z,19.05
2023-01-20T18:43:39.358Z,19.83
2023-01-20T18:46:07.018Z,18.02
2023-01-20T18:48:36.880Z,17.70
2023-01-20T18:51:03.837Z,18.50
2023-01-20T18:53:31.486Z,20.67
2023-01-20T18:56:01.209Z,26.27
2023-01-20T18:58:28.758Z,27.00
2023-01-20T19:01:17.567Z,23.75
2023-01-20T19:03:46.129Z,23.23
2023-01-20T19:06:18.428Z,21.17
2023-01-20T19:08:46.163Z,18.35
2023-01-20T19:11:17.535Z,19.50
2023-01-20T19:13:45.418Z,16.48
2023-01-20T19:16:12.959Z,19.33
2023-01-20T19:18:41.052Z,19.30
2023-01-20T19:21:10.251Z,19.10
2023-01-20T19:23:37.148Z,20.03
2023-01-20T19:26:06.329Z,20.73
2023-01-20T19:28:33.975Z,19.75
2023-01-20T19:31:08.462Z,20.10
2023-01-20T19:33:36.013Z,17.52
2023-01-20T19:36:05.208Z,18.98
2023-01-20T19:38:33.252Z,17.87
2023-01-20T19:41:11.512Z,18.83
2023-01-20T19:43:39.238Z,17.92
2023-01-20T19:46:09.072Z,18.75
2023-01-20T19:48:36.187Z,15.73
2023-01-20T19:51:08.049Z,16.73
2023-01-20T19:53:35.519Z,16.63
2023-01-20T19:56:20.350Z,18.25
2023-01-20T19:58:47.913Z,18.93
2023-01-20T20:01:20.150Z,16.03
2023-01-20T20:03:47.554Z,15.80
2023-01-20T20:06:32.817Z,15.63
2023-01-20T20:09:02.181Z,17.17
2023-01-20T20:11:30.177Z,16.13
2023-01-20T20:13:58.184Z,17.98
2023-01-20T20:16:26.818Z,19.15
2023-01-20T20:18:54.256Z,17.17
2023-01-20T20:21:21.253Z,20.10
2023-01-20T20:23:53.234Z,18.08
2023-01-20T20:26:21.565Z,17.20
2023-01-20T20:28:50.890Z,15.13
2023-01-20T20:31:18.534Z,15.85
2023-01-20T20:33:48.514Z,15.70
2023-01-20T20:36:15.781Z,13.63
2023-01-20T20:38:42.600Z,15.48
2023-01-20T20:41:09.932Z,15.50
2023-01-20T20:43:38.013Z,17.13
2023-01-20T20:46:07.237Z,17.80
2023-01-20T20:48:35.226Z,18.23
2023-01-20T20:51:10.334Z,18.90
2023-01-20T20:53:37.227Z,18.57
2023-01-20T20:56:08.681Z,20.17
2023-01-20T20:58:35.899Z,18.38
2023-01-20T21:01:08.896Z,16.67
2023-01-20T21:03:35.702Z,15.93
2023-01-20T21:06:02.342Z,16.10
2023-01-20T21:08:29.603Z,16.90
2023-01-20T21:11:04.709Z,16.95
2023-01-20T21:13:31.541Z,18.65
2023-01-20T21:16:09.399Z,18.57
2023-01-20T21:18:36.730Z,18.10
2023-01-20T21:21:05.683Z,17.38
2023-01-20T21:23:33.581Z,15.83
2023-01-20T21:26:05.198Z,14.43
2023-01-20T21:28:34.255Z,15.60
2023-01-20T21:31:01.222Z,16.40
2023-01-20T21:33:27.961Z,17.10
2023-01-20T21:35:54.654Z,17.70
2023-01-20T21:38:21.321Z,16.25
2023-01-20T21:40:59.827Z,17.52
2023-01-20T21:43:52.388Z,16.08
2023-01-20T21:46:19.629Z,16.02
2023-01-20T21:49:05.271Z,16.85
2023-01-20T21:51:50.707Z,14.73
2023-01-20T21:54:17.731Z,14.90
2023-01-20T21:56:44.676Z,13.17
2023-01-20T21:59:11.391Z,14.87
2023-01-20T22:01:38.643Z,16.17
2023-01-20T22:04:05.446Z,16.40
2023-01-20T22:06:32.097Z,16.20
2023-01-20T22:08:59.555Z,15.57
2023-01-20T22:11:27.333Z,17.37
2023-01-20T22:13:55.828Z,16.70
2023-01-20T22:16:24.302Z,16.05
2023-01-20T22:18:51.749Z,15.00
2023-01-20T22:21:19.512Z,15.63
2023-01-20T22:23:46.264Z,14.73
2023-01-20T22:26:13.210Z,15.77
2023-01-20T22:28:40.056Z,15.03
2023-01-20T22:31:17.128Z,14.07
2023-01-20T22:33:43.944Z,14.17
2023-01-20T22:36:10.660Z,14.17
2023-01-20T22:38:37.407Z,13.95
2023-01-20T22:41:05.543Z,13.33
2023-01-20T22:43:33.736Z,13.70
2023-01-20T22:46:02.261Z,14.50
2023-01-20T22:48:31.254Z,14.47
2023-01-20T22:51:07.258Z,14.87
2023-01-20T22:53:34.362Z,15.47
2023-01-20T22:56:22.665Z,15.30
2023-01-20T22:58:49.387Z,15.20
2023-01-20T23:01:19.095Z,15.30
2023-01-20T23:03:46.856Z,16.33
2023-01-20T23:06:14.090Z,17.37
2023-01-20T23:08:41.403Z,16.85
2023-01-20T23:11:19.463Z,17.13
2023-01-20T23:13:46.759Z,14.57
2023-01-20T23:16:16.446Z,16.07
2023-01-20T23:18:43.904Z,16.33
2023-01-20T23:21:10.949Z,15.00
2023-01-20T23:23:38.099Z,16.73
2023-01-20T23:26:14.704Z,15.73
2023-01-20T23:28:42.957Z,17.73
2023-01-20T23:31:12.974Z,23.80
2023-01-20T23:33:43.500Z,22.33
2023-01-20T23:36:21.799Z,18.20
2023-01-20T23:38:48.706Z,16.97
2023-01-20T23:41:16.135Z,16.43
2023-01-20T23:43:42.962Z,17.35
2023-01-20T23:46:10.217Z,16.60
2023-01-20T23:48:37.362Z,15.38
2023-01-20T23:51:06.257Z,16.07
2023-01-20T23:53:36.420Z,15.97
2023-01-20T23:56:24.720Z,18.02
2023-01-20T23:58:51.837Z,16.98
